KLDJ

Linden Airport

Linden, New Jersey, USA
METAR KLDJ 141335Z AUTO 00000KT 10SM SCT010 22/21 A2988 RMK AO2 T02210210
Observed Flight Rules
Aug-14 @ 13:35 UTC (7 minutes ago) Visual Flight Rules
Visibility Clouds
10 miles
  • Scattered at 1,000' AGL
Temperatures Readings
Current 22°C / 72°F
Dewpoint 21°C / 70°F
Humidity 94%
Altimeter 29.88" Hg
Pressure 1012 hPa
Elevation 7
METAR KLDJ 141335Z AUTO 00000KT 10SM SCT010 22/21 A2988 RMK AO2 T02210210
Observed Flight Rules
Aug-14 @ 13:35 UTC
(7 minutes ago)
VFR
Clouds
  • Scattered at 1,000' AGL
Temperature Dewpoint
22°C / 72°F 21°C / 70°F
Humidity Altimeter Pressure
94% 29.88" Hg 1012 hPa